Time;durP1;ratioP1;P1;durP2;ratioP2;P2;SDS_P1;SDS_P2;PMS_P1;PMS_P2;Temp;Humidity;BMP_temperature;BMP_pressure;BME280_temperature;BME280_humidity;BME280_pressure;Samples;Min_cycle;Max_cycle;Signal;HPM_P1;HPM_P2
2023/08/15 05:17:27;;;;;;;;;;;;;;;;;;4992109;28;19925;-39
2023/08/15 05:19:53;;;;;;;;;;;;;;;;;;4995063;28;19918;-39
2023/08/15 05:22:19;;;;;;;;;;;;;;;;;;4992266;28;20008;-39
2023/08/15 05:24:45;;;;;;;;;;;;;;;;;;4993449;28;20387;-39
2023/08/15 05:27:10;;;;;;;;;;;;;;;;;;4994496;28;19932;-39
2023/08/15 05:29:36;;;;;;;;;;;;;;;;;;4993263;28;19956;-39
2023/08/15 05:32:04;;;;;;;;;;;;;;;;;;4994576;28;19909;-39
2023/08/15 05:34:29;;;;;;;;;;;;;;;;;;4994876;28;19910;-39
2023/08/15 05:36:55;;;;;;;;;;;;;;;;;;4994855;28;19910;-39
2023/08/15 05:39:21;;;;;;;;;;;;;;;;;;4993761;28;20443;-39
2023/08/15 05:41:47;;;;;;;;;;;;;;;;;;4994759;28;19914;-39
2023/08/15 05:44:13;;;;;;;;;;;;;;;;;;4994505;28;19910;-39
2023/08/15 05:46:39;;;;;;;;;;;;;;;;;;4993258;28;19921;-39
2023/08/15 05:49:05;;;;;;;;;;;;;;;;;;4992621;28;19925;-40
2023/08/15 05:51:31;;;;;;;;;;;;;;;;;;4991985;28;19917;-40
2023/08/15 05:53:56;;;;;;;;;;;;;;;;;;4994600;28;19933;-40
2023/08/15 05:56:22;;;;;;;;;;;;;;;;;;4994289;28;19914;-40
2023/08/15 05:58:48;;;;;;;;;;;;;;;;;;4993094;28;19960;-39
2023/08/15 06:01:14;;;;;;;;;;;;;;;;;;4992579;28;20075;-39
2023/08/15 06:03:40;;;;;;;;;;;;;;;;;;4993469;28;19921;-39
2023/08/15 06:06:06;;;;;;;;;;;;;;;;;;4992521;28;19910;-39
2023/08/15 06:08:32;;;;;;;;;;;;;;;;;;4993160;28;20016;-39
2023/08/15 06:10:58;;;;;;;;;;;;;;;;;;4994137;28;19913;-40
2023/08/15 06:13:23;;;;;;;;;;;;;;;;;;4994380;28;19910;-39
2023/08/15 06:15:50;;;;;;;;;;;;;;;;;;4991138;28;20397;-48
2023/08/15 06:18:16;;;;;;;;;;;;;;;;;;4993319;28;19936;-39
2023/08/15 06:20:42;;;;;;;;;;;;;;;;;;4999876;28;20328;-39
2023/08/15 06:23:08;;;;;;;;;;;;;;;;;;4993855;28;19917;-39
2023/08/15 06:25:34;;;;;;;;;;;;;;;;;;4992701;28;19914;-39
2023/08/15 06:28:00;;;;;;;;;;;;;;;;;;4993100;28;20045;-39
2023/08/15 06:30:26;;;;;;;;;;;;;;;;;;4992285;28;20384;-39
2023/08/15 06:32:52;;;;;;;;;;;;;;;;;;4991279;28;19921;-39
2023/08/15 06:35:18;;;;;;;;;;;;;;;;;;4993244;28;19932;-39
2023/08/15 06:37:44;;;;;;;;;;;;;;;;;;4992693;28;20008;-39
2023/08/15 06:40:11;;;;;;;;;;;;;;;;;;4993507;28;20585;-39
2023/08/15 06:42:37;;;;;;;;;;;;;;;;;;4992403;28;19910;-39
2023/08/15 06:45:03;;;;;;;;;;;;;;;;;;4991620;28;20380;-39
2023/08/15 06:47:29;;;;;;;;;;;;;;;;;;4992063;28;19910;-39
2023/08/15 06:49:55;;;;;;;;;;;;;;;;;;4992270;28;19925;-39
2023/08/15 06:52:21;;;;;;;;;;;;;;;;;;4991026;28;20005;-40
2023/08/15 06:54:47;;;;;;;;;;;;;;;;;;4991052;28;19957;-41
2023/08/15 06:57:13;;;;;;;;;;;;;;;;;;4992787;28;20291;-40
2023/08/15 06:59:39;;;;;;;;;;;;;;;;;;4993068;28;20423;-40
2023/08/15 07:02:05;;;;;;;;;;;;;;;;;;4991672;28;19917;-40
2023/08/15 07:04:33;;;;;;;;;;;;;;;;;;4993482;28;19918;-40
2023/08/15 07:06:58;;;;;;;;;;;;;;;;;;4993369;28;19910;-40
2023/08/15 07:09:27;;;;;;;;;;;;;;;;;;4993355;28;19910;-40
2023/08/15 07:11:53;;;;;;;;;;;;;;;;;;4990498;28;19913;-40
2023/08/15 07:14:19;;;;;;;;;;;;;;;;;;4992893;28;19926;-40
2023/08/15 07:16:46;;;;;;;;;;;;;;;;;;4993036;28;19917;-41
2023/08/15 07:19:12;;;;;;;;;;;;;;;;;;4992954;28;20399;-41
2023/08/15 07:21:41;;;;;;;;;;;;;;;;;;4993587;28;19929;-40
2023/08/15 07:24:07;;;;;;;;;;;;;;;;;;5011231;28;19913;-41
2023/08/15 07:26:33;;;;;;;;;;;;;;;;;;5012102;28;19917;-41
2023/08/15 07:28:58;;;;;;;;;;;;;;;;;;4997072;28;20376;-41
2023/08/15 07:31:25;;;;;;;;;;;;;;;;;;4992988;28;20482;-41
2023/08/15 07:33:51;;;;;;;;;;;;;;;;;;4992371;28;19916;-41
2023/08/15 07:36:17;;;;;;;;;;;;;;;;;;4991350;28;20008;-42
2023/08/15 07:38:43;;;;;;;;;;;;;;;;;;4986706;28;20069;-41
2023/08/15 07:41:09;;;;;;;;;;;;;;;;;;4990242;28;20363;-41
2023/08/15 07:43:35;;;;;;;;;;;;;;;;;;4993439;28;19914;-41
2023/08/15 07:46:01;;;;;;;;;;;;;;;;;;4992924;28;20307;-41
2023/08/15 07:48:27;;;;;;;;;;;;;;;;;;4991291;28;19914;-41
2023/08/15 07:50:53;;;;;;;;;;;;;;;;;;4989608;28;20331;-42
2023/08/15 07:53:18;;;;;;;;;;;;;;;;;;4991541;28;20300;-43
2023/08/15 07:55:44;;;;;;;;;;;;;;;;;;4991353;28;19960;-42
2023/08/15 07:58:10;;;;;;;;;;;;;;;;;;4991777;28;20442;-42
2023/08/15 08:00:36;;;;;;;;;;;;;;;;;;4991966;28;19920;-42
2023/08/15 08:03:02;;;;;;;;;;;;;;;;;;4992833;28;19913;-42
2023/08/15 08:05:28;;;;;;;;;;;;;;;;;;4993113;28;20270;-42
2023/08/15 08:07:54;;;;;;;;;;;;;;;;;;4992292;28;20032;-42
2023/08/15 08:10:20;;;;;;;;;;;;;;;;;;4992642;28;19920;-43
2023/08/15 08:12:46;;;;;;;;;;;;;;;;;;4991499;28;19920;-42
2023/08/15 08:15:12;;;;;;;;;;;;;;;;;;4992069;28;19949;-43
2023/08/15 08:17:38;;;;;;;;;;;;;;;;;;4991783;28;19948;-43
2023/08/15 08:20:16;;;;;;;;;;;;;;;;;;4992603;28;19910;-44
2023/08/15 08:22:41;;;;;;;;;;;;;;;;;;4992492;28;19945;-43
2023/08/15 08:25:07;;;;;;;;;;;;;;;;;;4991561;28;19948;-42
2023/08/15 08:27:34;;;;;;;;;;;;;;;;;;4992382;28;19914;-44
2023/08/15 08:29:59;;;;;;;;;;;;;;;;;;4991367;28;19917;-43
2023/08/15 08:32:25;;;;;;;;;;;;;;;;;;4991662;28;20000;-42
2023/08/15 08:34:51;;;;;;;;;;;;;;;;;;4991336;28;19917;-44
2023/08/15 08:37:17;;;;;;;;;;;;;;;;;;4989231;28;19921;-47
2023/08/15 08:39:43;;;;;;;;;;;;;;;;;;4990457;28;19960;-48
2023/08/15 08:42:09;;;;;;;;;;;;;;;;;;4991328;28;19909;-44
2023/08/15 08:44:35;;;;;;;;;;;;;;;;;;4988134;28;19957;-43
2023/08/15 08:47:01;;;;;;;;;;;;;;;;;;4983001;28;19925;-44
2023/08/15 08:49:27;;;;;;;;;;;;;;;;;;4989523;28;20545;-46
2023/08/15 08:51:53;;;;;;;;;;;;;;;;;;4990091;28;19917;-44
2023/08/15 08:54:19;;;;;;;;;;;;;;;;;;4988088;28;20000;-44
2023/08/15 08:56:45;;;;;;;;;;;;;;;;;;4989578;28;20450;-43
2023/08/15 08:59:12;;;;;;;;;;;;;;;;;;4990000;28;19914;-44
2023/08/15 09:01:39;;;;;;;;;;;;;;;;;;4990095;28;19945;-46
2023/08/15 09:04:05;;;;;;;;;;;;;;;;;;4989731;28;19942;-44
2023/08/15 09:06:31;;;;;;;;;;;;;;;;;;4987999;28;19968;-47
2023/08/15 09:08:57;;;;;;;;;;;;;;;;;;4989195;28;19932;-43
2023/08/15 09:11:23;;;;;;;;;;;;;;;;;;4990145;28;19953;-42
2023/08/15 09:13:49;;;;;;;;;;;;;;;;;;4990591;28;19948;-44
2023/08/15 09:16:15;;;;;;;;;;;;;;;;;;4988181;28;19921;-44
2023/08/15 09:18:41;;;;;;;;;;;;;;;;;;4991222;28;19918;-47
2023/08/15 09:21:07;;;;;;;;;;;;;;;;;;4988319;28;19914;-43
2023/08/15 09:23:33;;;;;;;;;;;;;;;;;;4989916;28;19909;-46
2023/08/15 09:25:59;;;;;;;;;;;;;;;;;;4989222;28;19913;-45
2023/08/15 09:28:25;;;;;;;;;;;;;;;;;;4987207;28;19941;-46
2023/08/15 09:30:51;;;;;;;;;;;;;;;;;;5000080;28;19980;-46
2023/08/15 09:33:17;;;;;;;;;;;;;;;;;;4990419;28;19909;-45
2023/08/15 09:35:43;;;;;;;;;;;;;;;;;;4990119;28;19937;-45
2023/08/15 09:38:10;;;;;;;;;;;;;;;;;;4989472;28;19913;-45
2023/08/15 09:40:37;;;;;;;;;;;;;;;;;;4989247;28;20332;-47
2023/08/15 09:43:02;;;;;;;;;;;;;;;;;;4990648;28;20283;-46
2023/08/15 09:45:28;;;;;;;;;;;;;;;;;;4990102;28;20009;-47
2023/08/15 09:47:54;;;;;;;;;;;;;;;;;;4990026;28;19910;-45
2023/08/15 09:50:20;;;;;;;;;;;;;;;;;;4989968;28;20446;-46
2023/08/15 09:52:46;;;;;;;;;;;;;;;;;;4989399;28;19921;-46
2023/08/15 09:55:12;;;;;;;;;;;;;;;;;;4988164;28;19944;-44
2023/08/15 09:57:38;;;;;;;;;;;;;;;;;;4991902;28;19910;-45
2023/08/15 10:00:04;;;;;;;;;;;;;;;;;;4994648;28;19916;-46
2023/08/15 10:02:30;;;;;;;;;;;;;;;;;;4996324;28;19951;-45
2023/08/15 10:04:56;;;;;;;;;;;;;;;;;;4994337;28;19913;-45
2023/08/15 10:07:22;;;;;;;;;;;;;;;;;;4991224;28;19914;-45
2023/08/15 10:09:48;;;;;;;;;;;;;;;;;;4994932;28;19916;-47
2023/08/15 10:12:14;;;;;;;;;;;;;;;;;;4994640;28;19996;-45
2023/08/15 10:14:40;;;;;;;;;;;;;;;;;;4993460;28;19969;-46
2023/08/15 10:17:06;;;;;;;;;;;;;;;;;;4992849;28;20365;-44
2023/08/15 10:19:32;;;;;;;;;;;;;;;;;;4993501;28;20364;-44
2023/08/15 10:21:58;;;;;;;;;;;;;;;;;;4994309;28;19941;-45
2023/08/15 10:24:24;;;;;;;;;;;;;;;;;;4992571;28;19913;-44
2023/08/15 10:26:50;;;;;;;;;;;;;;;;;;4991785;28;20535;-45
2023/08/15 10:29:16;;;;;;;;;;;;;;;;;;4994483;28;19914;-47
2023/08/15 10:31:42;;;;;;;;;;;;;;;;;;4993563;28;19922;-47
2023/08/15 10:34:07;;;;;;;;;;;;;;;;;;4989085;28;19981;-44
2023/08/15 10:36:33;;;;;;;;;;;;;;;;;;4992354;28;20335;-44
2023/08/15 10:38:59;;;;;;;;;;;;;;;;;;4996161;28;19914;-45
2023/08/15 10:41:26;;;;;;;;;;;;;;;;;;4994039;28;19909;-44
2023/08/15 10:43:52;;;;;;;;;;;;;;;;;;4995047;28;19921;-45
2023/08/15 10:46:18;;;;;;;;;;;;;;;;;;4993416;28;19909;-44
2023/08/15 10:48:44;;;;;;;;;;;;;;;;;;4992081;28;19988;-44
2023/08/15 10:51:10;;;;;;;;;;;;;;;;;;4988243;28;19925;-45
2023/08/15 10:53:36;;;;;;;;;;;;;;;;;;4991572;28;19996;-47
2023/08/15 10:56:02;;;;;;;;;;;;;;;;;;4991982;28;19985;-46
2023/08/15 10:58:28;;;;;;;;;;;;;;;;;;4993063;28;19914;-44
2023/08/15 11:00:54;;;;;;;;;;;;;;;;;;4989516;28;20357;-45
2023/08/15 11:03:20;;;;;;;;;;;;;;;;;;4991619;28;19949;-45
2023/08/15 11:05:46;;;;;;;;;;;;;;;;;;4991659;28;19997;-44
2023/08/15 11:08:12;;;;;;;;;;;;;;;;;;5005080;28;19953;-44
2023/08/15 11:10:38;;;;;;;;;;;;;;;;;;4991085;28;19918;-45
2023/08/15 11:13:04;;;;;;;;;;;;;;;;;;4997130;28;19968;-44
2023/08/15 11:15:30;;;;;;;;;;;;;;;;;;4993075;28;20399;-45
2023/08/15 11:17:55;;;;;;;;;;;;;;;;;;4992538;28;19928;-44
2023/08/15 11:20:22;;;;;;;;;;;;;;;;;;4999602;28;20011;-43
2023/08/15 11:22:48;;;;;;;;;;;;;;;;;;5000759;28;19909;-45
2023/08/15 11:25:14;;;;;;;;;;;;;;;;;;4990024;28;19921;-45
2023/08/15 11:27:40;;;;;;;;;;;;;;;;;;4986990;28;19936;-44
2023/08/15 11:30:06;;;;;;;;;;;;;;;;;;4989393;28;20012;-42
2023/08/15 11:32:32;;;;;;;;;;;;;;;;;;4989384;28;20387;-43
2023/08/15 11:34:58;;;;;;;;;;;;;;;;;;4988061;28;19917;-44
2023/08/15 11:37:24;;;;;;;;;;;;;;;;;;4997382;28;19914;-43
2023/08/15 11:39:50;;;;;;;;;;;;;;;;;;4989552;28;20281;-44
2023/08/15 11:42:15;;;;;;;;;;;;;;;;;;4989258;28;19914;-43
2023/08/15 11:44:41;;;;;;;;;;;;;;;;;;4989247;28;19922;-44
2023/08/15 11:47:07;;;;;;;;;;;;;;;;;;5006296;28;19914;-43
2023/08/15 11:49:33;;;;;;;;;;;;;;;;;;4991455;28;19972;-43
2023/08/15 11:51:59;;;;;;;;;;;;;;;;;;4999696;28;19964;-42
2023/08/15 11:54:25;;;;;;;;;;;;;;;;;;4987914;28;19937;-42
2023/08/15 11:56:51;;;;;;;;;;;;;;;;;;4989447;28;19925;-42
2023/08/15 11:59:18;;;;;;;;;;;;;;;;;;4987393;28;19918;-42
2023/08/15 12:01:44;;;;;;;;;;;;;;;;;;4979919;28;19914;-42
2023/08/15 12:04:10;;;;;;;;;;;;;;;;;;4986360;28;19984;-42
2023/08/15 12:06:36;;;;;;;;;;;;;;;;;;4984689;28;19917;-42
2023/08/15 12:09:02;;;;;;;;;;;;;;;;;;4996035;28;19941;-42
2023/08/15 12:11:28;;;;;;;;;;;;;;;;;;4984867;28;19918;-42
2023/08/15 12:13:54;;;;;;;;;;;;;;;;;;4987848;28;19967;-43
2023/08/15 12:16:20;;;;;;;;;;;;;;;;;;4984248;28;20704;-43
2023/08/15 12:18:46;;;;;;;;;;;;;;;;;;4990597;28;19956;-43
2023/08/15 12:21:12;;;;;;;;;;;;;;;;;;4993687;28;19964;-44
2023/08/15 12:23:38;;;;;;;;;;;;;;;;;;4990925;28;19913;-42
2023/08/15 12:26:04;;;;;;;;;;;;;;;;;;4986888;28;19913;-43
2023/08/15 12:28:30;;;;;;;;;;;;;;;;;;4988456;28;19918;-44
2023/08/15 12:30:56;;;;;;;;;;;;;;;;;;4983351;28;19977;-42
2023/08/15 12:33:21;;;;;;;;;;;;;;;;;;4988126;28;19918;-43
2023/08/15 12:35:47;;;;;;;;;;;;;;;;;;4987182;28;20402;-44
2023/08/15 12:38:13;;;;;;;;;;;;;;;;;;5002310;28;19910;-43
2023/08/15 12:40:42;;;;;;;;;;;;;;;;;;4985799;28;20381;-42
2023/08/15 12:43:09;;;;;;;;;;;;;;;;;;4988051;28;19914;-42
2023/08/15 12:45:35;;;;;;;;;;;;;;;;;;4986151;28;19989;-42
2023/08/15 12:48:01;;;;;;;;;;;;;;;;;;5001863;28;20388;-42
2023/08/15 12:50:27;;;;;;;;;;;;;;;;;;4986324;28;19917;-43
2023/08/15 12:52:53;;;;;;;;;;;;;;;;;;4988782;28;19922;-42
2023/08/15 12:55:18;;;;;;;;;;;;;;;;;;4988888;28;19914;-43
2023/08/15 12:57:45;;;;;;;;;;;;;;;;;;4987971;28;20854;-42
2023/08/15 13:00:11;;;;;;;;;;;;;;;;;;4989491;28;19983;-45
2023/08/15 13:02:37;;;;;;;;;;;;;;;;;;5000113;28;19914;-42
2023/08/15 13:05:07;;;;;;;;;;;;;;;;;;4986639;28;19936;-43
2023/08/15 13:07:33;;;;;;;;;;;;;;;;;;4985074;28;19918;-42
2023/08/15 13:09:59;;;;;;;;;;;;;;;;;;4986726;28;19940;-42
2023/08/15 13:12:24;;;;;;;;;;;;;;;;;;5007569;28;19914;-42
2023/08/15 13:14:50;;;;;;;;;;;;;;;;;;4981605;28;20431;-42
2023/08/15 13:17:16;;;;;;;;;;;;;;;;;;4989439;28;20001;-42
2023/08/15 13:19:42;;;;;;;;;;;;;;;;;;4985183;28;19926;-42
2023/08/15 13:22:08;;;;;;;;;;;;;;;;;;4988849;28;19921;-43
2023/08/15 13:24:34;;;;;;;;;;;;;;;;;;4986242;28;19914;-42
2023/08/15 13:27:00;;;;;;;;;;;;;;;;;;4988368;28;20396;-42
2023/08/15 13:29:26;;;;;;;;;;;;;;;;;;4984569;28;19914;-42
2023/08/15 13:31:52;;;;;;;;;;;;;;;;;;4990536;28;19918;-42
2023/08/15 13:34:20;;;;;;;;;;;;;;;;;;4980054;28;20270;-43
2023/08/15 13:36:45;;;;;;;;;;;;;;;;;;4986502;28;20384;-44
2023/08/15 13:39:11;;;;;;;;;;;;;;;;;;4997907;28;20001;-42
2023/08/15 13:41:37;;;;;;;;;;;;;;;;;;4989528;28;20332;-42
2023/08/15 13:44:03;;;;;;;;;;;;;;;;;;4991214;28;19920;-42
2023/08/15 13:46:29;;;;;;;;;;;;;;;;;;4989890;28;20367;-42
2023/08/15 13:48:55;;;;;;;;;;;;;;;;;;4991302;28;20222;-43
2023/08/15 13:51:21;;;;;;;;;;;;;;;;;;4990848;28;19914;-42
2023/08/15 13:53:47;;;;;;;;;;;;;;;;;;4990382;28;20001;-43
2023/08/15 13:56:13;;;;;;;;;;;;;;;;;;4990149;28;19914;-43
2023/08/15 13:58:39;;;;;;;;;;;;;;;;;;4989236;28;20389;-43
2023/08/15 14:01:04;;;;;;;;;;;;;;;;;;4992138;28;20054;-43
2023/08/15 14:03:30;;;;;;;;;;;;;;;;;;4997271;28;19913;-43
2023/08/15 14:05:56;;;;;;;;;;;;;;;;;;4996641;28;19913;-43
2023/08/15 14:08:22;;;;;;;;;;;;;;;;;;4996160;28;20387;-42
2023/08/15 14:10:48;;;;;;;;;;;;;;;;;;4987518;28;19918;-43
2023/08/15 14:13:14;;;;;;;;;;;;;;;;;;4991428;28;19996;-43
2023/08/15 14:15:40;;;;;;;;;;;;;;;;;;4989309;28;19917;-44
2023/08/15 14:18:06;;;;;;;;;;;;;;;;;;5009197;28;19920;-42
2023/08/15 14:20:31;;;;;;;;;;;;;;;;;;4988853;28;20004;-43
2023/08/15 14:22:57;;;;;;;;;;;;;;;;;;4992967;28;19916;-42
2023/08/15 14:25:23;;;;;;;;;;;;;;;;;;4988429;28;19937;-42
2023/08/15 14:27:49;;;;;;;;;;;;;;;;;;4991467;28;19924;-44
2023/08/15 14:30:15;;;;;;;;;;;;;;;;;;4989793;28;20385;-43
2023/08/15 14:32:41;;;;;;;;;;;;;;;;;;5009174;28;19913;-43
2023/08/15 14:35:07;;;;;;;;;;;;;;;;;;4992144;28;19910;-44
2023/08/15 14:37:33;;;;;;;;;;;;;;;;;;4991135;28;19926;-43
2023/08/15 14:39:59;;;;;;;;;;;;;;;;;;4976978;28;19921;-43
2023/08/15 14:42:25;;;;;;;;;;;;;;;;;;4974984;28;19914;-42
2023/08/15 14:44:50;;;;;;;;;;;;;;;;;;4988248;28;20004;-43
2023/08/15 14:47:17;;;;;;;;;;;;;;;;;;4987878;28;19937;-42
2023/08/15 14:49:43;;;;;;;;;;;;;;;;;;4990284;28;19910;-44
2023/08/15 14:52:09;;;;;;;;;;;;;;;;;;4989023;28;19920;-42
2023/08/15 14:54:35;;;;;;;;;;;;;;;;;;4989423;28;19914;-43
2023/08/15 14:57:01;;;;;;;;;;;;;;;;;;4990316;28;20357;-42
2023/08/15 14:59:26;;;;;;;;;;;;;;;;;;4989992;28;20375;-43
2023/08/15 15:01:52;;;;;;;;;;;;;;;;;;4990917;28;19909;-43
2023/08/15 15:04:18;;;;;;;;;;;;;;;;;;4991807;28;20016;-43
2023/08/15 15:06:44;;;;;;;;;;;;;;;;;;4991956;28;19932;-43
2023/08/15 15:09:10;;;;;;;;;;;;;;;;;;4991790;28;19932;-43
2023/08/15 15:11:36;;;;;;;;;;;;;;;;;;4985467;28;20284;-43
2023/08/15 15:14:02;;;;;;;;;;;;;;;;;;4981435;28;19928;-42
2023/08/15 15:16:28;;;;;;;;;;;;;;;;;;4983005;28;19914;-43
2023/08/15 15:18:54;;;;;;;;;;;;;;;;;;4987893;28;20407;-43
2023/08/15 15:21:19;;;;;;;;;;;;;;;;;;4989827;28;20399;-43
2023/08/15 15:23:45;;;;;;;;;;;;;;;;;;4988453;28;19916;-43
2023/08/15 15:26:11;;;;;;;;;;;;;;;;;;4987101;28;20122;-43
2023/08/15 15:28:37;;;;;;;;;;;;;;;;;;4988284;28;19914;-42
2023/08/15 15:31:03;;;;;;;;;;;;;;;;;;4981751;28;19918;-43
2023/08/15 15:33:29;;;;;;;;;;;;;;;;;;4988588;28;19914;-43
2023/08/15 15:35:55;;;;;;;;;;;;;;;;;;4989773;28;19953;-46
2023/08/15 15:38:21;;;;;;;;;;;;;;;;;;4989937;28;19964;-43
2023/08/15 15:40:47;;;;;;;;;;;;;;;;;;4989549;28;19980;-43
2023/08/15 15:43:12;;;;;;;;;;;;;;;;;;4989486;28;19916;-43
2023/08/15 15:45:39;;;;;;;;;;;;;;;;;;4987680;28;19961;-44
2023/08/15 15:48:05;;;;;;;;;;;;;;;;;;4988422;28;19925;-44
2023/08/15 15:50:30;;;;;;;;;;;;;;;;;;4989785;28;19913;-44
2023/08/15 15:52:56;;;;;;;;;;;;;;;;;;4987911;28;19910;-43
2023/08/15 15:55:22;;;;;;;;;;;;;;;;;;4989118;28;20010;-43
2023/08/15 15:57:50;;;;;;;;;;;;;;;;;;4989082;28;19914;-43
2023/08/15 16:00:16;;;;;;;;;;;;;;;;;;4988142;28;19976;-44
2023/08/15 16:02:42;;;;;;;;;;;;;;;;;;4986979;28;20411;-44
2023/08/15 16:05:07;;;;;;;;;;;;;;;;;;4989161;28;20431;-45
2023/08/15 16:07:33;;;;;;;;;;;;;;;;;;4989152;28;19920;-45
2023/08/15 16:09:59;;;;;;;;;;;;;;;;;;4989040;28;19917;-45
2023/08/15 16:12:25;;;;;;;;;;;;;;;;;;4988849;28;20438;-44
2023/08/15 16:14:51;;;;;;;;;;;;;;;;;;4988424;28;19972;-43
2023/08/15 16:17:17;;;;;;;;;;;;;;;;;;4987537;28;19933;-44
2023/08/15 16:19:43;;;;;;;;;;;;;;;;;;4988855;28;20388;-44
2023/08/15 16:22:09;;;;;;;;;;;;;;;;;;4988634;28;20012;-45
2023/08/15 16:24:35;;;;;;;;;;;;;;;;;;4988199;28;19914;-44
2023/08/15 16:27:01;;;;;;;;;;;;;;;;;;4986597;28;19918;-45
2023/08/15 16:29:27;;;;;;;;;;;;;;;;;;4985531;28;19925;-45
2023/08/15 16:31:55;;;;;;;;;;;;;;;;;;4986192;28;21461;-45
2023/08/15 16:34:21;;;;;;;;;;;;;;;;;;4988141;28;19909;-44
2023/08/15 16:36:47;;;;;;;;;;;;;;;;;;4982388;28;19949;-45
2023/08/15 16:39:13;;;;;;;;;;;;;;;;;;4986902;28;19992;-44
2023/08/15 16:41:39;;;;;;;;;;;;;;;;;;4985897;28;19996;-44
2023/08/15 16:44:05;;;;;;;;;;;;;;;;;;4988593;28;20288;-44
2023/08/15 16:46:31;;;;;;;;;;;;;;;;;;4987293;28;19918;-45
2023/08/15 16:48:56;;;;;;;;;;;;;;;;;;4987642;28;19972;-44
2023/08/15 16:51:23;;;;;;;;;;;;;;;;;;4987948;28;19914;-46
2023/08/15 16:53:48;;;;;;;;;;;;;;;;;;4986812;28;20022;-43
2023/08/15 16:56:16;;;;;;;;;;;;;;;;;;4976894;28;19992;-43
2023/08/15 16:58:44;;;;;;;;;;;;;;;;;;4986613;28;19918;-44
2023/08/15 17:01:10;;;;;;;;;;;;;;;;;;4989166;28;19910;-46
2023/08/15 17:03:36;;;;;;;;;;;;;;;;;;4989577;28;19917;-44
2023/08/15 17:06:01;;;;;;;;;;;;;;;;;;4993979;28;19917;-43
2023/08/15 17:08:27;;;;;;;;;;;;;;;;;;4988455;28;20383;-43
2023/08/15 17:10:53;;;;;;;;;;;;;;;;;;4984439;28;19957;-43
2023/08/15 17:13:19;;;;;;;;;;;;;;;;;;4987319;28;19910;-43
2023/08/15 17:15:45;;;;;;;;;;;;;;;;;;4986727;28;19921;-44
2023/08/15 17:18:11;;;;;;;;;;;;;;;;;;4987976;28;20015;-44
2023/08/15 17:20:37;;;;;;;;;;;;;;;;;;4988634;28;19984;-43
2023/08/15 17:23:03;;;;;;;;;;;;;;;;;;4989429;28;19953;-43
2023/08/15 17:25:29;;;;;;;;;;;;;;;;;;4989236;28;19910;-45
2023/08/15 17:27:55;;;;;;;;;;;;;;;;;;4988355;28;20429;-43
2023/08/15 17:30:21;;;;;;;;;;;;;;;;;;5002702;28;19917;-43
2023/08/15 17:32:47;;;;;;;;;;;;;;;;;;4984522;28;19914;-44
2023/08/15 17:35:13;;;;;;;;;;;;;;;;;;4988987;28;19913;-43
2023/08/15 17:37:39;;;;;;;;;;;;;;;;;;4994777;28;19916;-44
2023/08/15 17:40:05;;;;;;;;;;;;;;;;;;4987572;28;19941;-43
2023/08/15 17:42:31;;;;;;;;;;;;;;;;;;4990063;28;19945;-43
2023/08/15 17:44:57;;;;;;;;;;;;;;;;;;4998138;28;20023;-45
2023/08/15 17:47:22;;;;;;;;;;;;;;;;;;4983922;28;19914;-44
2023/08/15 17:49:48;;;;;;;;;;;;;;;;;;4984792;28;20412;-43
2023/08/15 17:52:14;;;;;;;;;;;;;;;;;;4993955;28;19910;-45
2023/08/15 17:54:40;;;;;;;;;;;;;;;;;;4987309;28;20330;-44
2023/08/15 17:57:06;;;;;;;;;;;;;;;;;;4989071;28;19913;-45
2023/08/15 17:59:32;;;;;;;;;;;;;;;;;;4986131;28;20008;-44
2023/08/15 18:01:58;;;;;;;;;;;;;;;;;;4983817;28;19964;-44
2023/08/15 18:04:24;;;;;;;;;;;;;;;;;;4989752;28;19961;-44
2023/08/15 18:06:50;;;;;;;;;;;;;;;;;;4983553;28;19918;-46
2023/08/15 18:09:16;;;;;;;;;;;;;;;;;;4986177;28;19921;-44
2023/08/15 18:11:42;;;;;;;;;;;;;;;;;;4992651;28;20359;-43
2023/08/15 18:14:07;;;;;;;;;;;;;;;;;;4994090;28;19922;-43
2023/08/15 18:16:33;;;;;;;;;;;;;;;;;;4985127;28;19918;-46
2023/08/15 18:18:59;;;;;;;;;;;;;;;;;;4987446;28;19921;-44
2023/08/15 18:21:26;;;;;;;;;;;;;;;;;;4986145;28;20648;-43
2023/08/15 18:23:51;;;;;;;;;;;;;;;;;;4985992;28;19928;-43
2023/08/15 18:26:17;;;;;;;;;;;;;;;;;;4986733;28;19914;-45
2023/08/15 18:28:43;;;;;;;;;;;;;;;;;;4990681;28;19913;-44
2023/08/15 18:31:09;;;;;;;;;;;;;;;;;;4998989;28;19917;-44
2023/08/15 18:33:35;;;;;;;;;;;;;;;;;;4994789;28;19914;-44
2023/08/15 18:36:01;;;;;;;;;;;;;;;;;;4993995;28;19951;-43
2023/08/15 18:38:31;;;;;;;;;;;;;;;;;;5002543;28;19917;-43
2023/08/15 18:40:57;;;;;;;;;;;;;;;;;;4999182;28;19922;-42
2023/08/15 18:43:23;;;;;;;;;;;;;;;;;;4991233;28;20045;-43
2023/08/15 18:45:49;;;;;;;;;;;;;;;;;;4992241;28;19921;-44
2023/08/15 18:48:15;;;;;;;;;;;;;;;;;;4998725;28;19921;-44
2023/08/15 18:50:41;;;;;;;;;;;;;;;;;;4988085;28;19928;-44
2023/08/15 18:53:07;;;;;;;;;;;;;;;;;;4990359;28;19913;-43
2023/08/15 18:55:33;;;;;;;;;;;;;;;;;;4986390;28;20494;-44
2023/08/15 18:57:59;;;;;;;;;;;;;;;;;;4989123;28;20008;-43
2023/08/15 19:00:25;;;;;;;;;;;;;;;;;;4996689;28;20391;-45
2023/08/15 19:02:51;;;;;;;;;;;;;;;;;;4984236;28;19918;-43
2023/08/15 19:05:17;;;;;;;;;;;;;;;;;;4978551;28;19984;-44
2023/08/15 19:07:42;;;;;;;;;;;;;;;;;;4990282;28;19952;-45
2023/08/15 19:10:08;;;;;;;;;;;;;;;;;;4989942;28;20802;-45
2023/08/15 19:12:34;;;;;;;;;;;;;;;;;;4999119;28;20374;-44
2023/08/15 19:15:02;;;;;;;;;;;;;;;;;;4997846;28;19913;-45
2023/08/15 19:17:28;;;;;;;;;;;;;;;;;;5004312;28;19922;-44
2023/08/15 19:19:54;;;;;;;;;;;;;;;;;;4988084;28;19918;-43
2023/08/15 19:22:20;;;;;;;;;;;;;;;;;;4994000;28;19913;-44
2023/08/15 19:24:46;;;;;;;;;;;;;;;;;;4988402;28;19972;-46
2023/08/15 19:27:12;;;;;;;;;;;;;;;;;;4990708;28;20450;-43
2023/08/15 19:29:38;;;;;;;;;;;;;;;;;;4993494;28;19914;-43
2023/08/15 19:32:04;;;;;;;;;;;;;;;;;;4994699;28;19917;-43
2023/08/15 19:34:30;;;;;;;;;;;;;;;;;;4991341;28;20454;-46
2023/08/15 19:36:56;;;;;;;;;;;;;;;;;;4999591;28;19917;-45
2023/08/15 19:39:22;;;;;;;;;;;;;;;;;;4984065;28;19979;-45
2023/08/15 19:41:49;;;;;;;;;;;;;;;;;;4986203;28;20397;-45
2023/08/15 19:44:15;;;;;;;;;;;;;;;;;;4987762;28;20288;-46
2023/08/15 19:46:41;;;;;;;;;;;;;;;;;;4987481;28;19914;-45
2023/08/15 19:49:07;;;;;;;;;;;;;;;;;;4987111;28;19961;-45
2023/08/15 19:51:33;;;;;;;;;;;;;;;;;;4987646;28;20546;-45
2023/08/15 19:53:58;;;;;;;;;;;;;;;;;;4986555;28;21455;-46
2023/08/15 19:56:24;;;;;;;;;;;;;;;;;;4993830;28;20055;-47
2023/08/15 19:58:50;;;;;;;;;;;;;;;;;;4999319;28;19913;-44
2023/08/15 20:01:16;;;;;;;;;;;;;;;;;;4996121;28;19914;-44
2023/08/15 20:03:42;;;;;;;;;;;;;;;;;;4981703;28;20012;-44
2023/08/15 20:06:08;;;;;;;;;;;;;;;;;;4983806;28;20563;-45
2023/08/15 20:08:34;;;;;;;;;;;;;;;;;;4980975;28;19921;-45
2023/08/15 20:11:00;;;;;;;;;;;;;;;;;;4986141;28;19925;-49
2023/08/15 20:13:25;;;;;;;;;;;;;;;;;;4982981;28;19918;-46
2023/08/15 20:15:51;;;;;;;;;;;;;;;;;;4986689;28;19910;-49
2023/08/15 20:18:17;;;;;;;;;;;;;;;;;;4985793;28;19918;-47
2023/08/15 20:20:43;;;;;;;;;;;;;;;;;;4989114;28;19917;-45
2023/08/15 20:23:09;;;;;;;;;;;;;;;;;;4996995;28;20396;-45
2023/08/15 20:25:36;;;;;;;;;;;;;;;;;;4987616;28;19910;-45
2023/08/15 20:28:02;;;;;;;;;;;;;;;;;;4983776;28;20398;-47
2023/08/15 20:30:28;;;;;;;;;;;;;;;;;;4985672;28;19922;-44
2023/08/15 20:32:54;;;;;;;;;;;;;;;;;;4996035;28;20258;-44
2023/08/15 20:35:20;;;;;;;;;;;;;;;;;;4988684;28;20336;-44
2023/08/15 20:37:46;;;;;;;;;;;;;;;;;;4984116;28;19997;-45
2023/08/15 20:40:12;;;;;;;;;;;;;;;;;;4985234;28;20056;-44
2023/08/15 20:42:38;;;;;;;;;;;;;;;;;;4976915;28;20383;-43
2023/08/15 20:45:04;;;;;;;;;;;;;;;;;;4970157;28;19929;-44
2023/08/15 20:47:30;;;;;;;;;;;;;;;;;;4984761;28;19921;-44
2023/08/15 20:49:56;;;;;;;;;;;;;;;;;;4986634;28;19922;-44
2023/08/15 20:52:22;;;;;;;;;;;;;;;;;;5002095;28;19925;-46
2023/08/15 20:54:48;;;;;;;;;;;;;;;;;;4994979;28;19984;-45
2023/08/15 20:57:14;;;;;;;;;;;;;;;;;;4983444;28;19919;-45
2023/08/15 20:59:40;;;;;;;;;;;;;;;;;;4986370;28;19945;-46
2023/08/15 21:02:06;;;;;;;;;;;;;;;;;;4986076;28;19913;-46
2023/08/15 21:04:32;;;;;;;;;;;;;;;;;;4999549;28;19917;-44
2023/08/15 21:06:58;;;;;;;;;;;;;;;;;;5002894;28;19941;-45
2023/08/15 21:09:24;;;;;;;;;;;;;;;;;;4984875;28;20391;-46
2023/08/15 21:11:50;;;;;;;;;;;;;;;;;;4990384;28;19965;-44
2023/08/15 21:14:16;;;;;;;;;;;;;;;;;;4986880;28;19913;-47
2023/08/15 21:16:42;;;;;;;;;;;;;;;;;;4992419;28;19925;-45
2023/08/15 21:19:08;;;;;;;;;;;;;;;;;;4986861;28;20460;-46
2023/08/15 21:21:33;;;;;;;;;;;;;;;;;;4985881;28;20024;-43
2023/08/15 21:23:59;;;;;;;;;;;;;;;;;;4986053;28;19917;-47
2023/08/15 21:26:26;;;;;;;;;;;;;;;;;;4987179;28;19971;-46
2023/08/15 21:28:52;;;;;;;;;;;;;;;;;;4985617;28;20381;-45
2023/08/15 21:31:18;;;;;;;;;;;;;;;;;;4987431;28;19920;-46
2023/08/15 21:33:44;;;;;;;;;;;;;;;;;;4986940;28;20012;-47
2023/08/15 21:36:09;;;;;;;;;;;;;;;;;;4986382;28;19910;-44
2023/08/15 21:38:35;;;;;;;;;;;;;;;;;;4986415;28;20395;-44
2023/08/15 21:41:01;;;;;;;;;;;;;;;;;;4986419;28;19937;-45
2023/08/15 21:43:27;;;;;;;;;;;;;;;;;;4986534;28;19957;-45
2023/08/15 21:45:53;;;;;;;;;;;;;;;;;;4986190;28;19910;-44
2023/08/15 21:48:19;;;;;;;;;;;;;;;;;;4985908;28;20383;-45
2023/08/15 21:50:45;;;;;;;;;;;;;;;;;;4986471;28;19924;-46
2023/08/15 21:53:11;;;;;;;;;;;;;;;;;;4990537;28;20351;-45